Flight Track Log - Related Links

Times and Time Zones

All times are in EDT time to prevent confusion due to time zone crossing. See the UAL4434 flight status page for this flight to view local times or setup timezone preferences in your user account.

Time Position Orientation Groundspeed Altitude Reporting Facility
EDT Latitude Longitude Course Direction KTS MPH feet Rate Location/Type
Wed 03:36:37 PM 40.6500 -74.1833 48° Northeast 179 206 1,900  Level New York TRACON
Wed 03:37:32 PM 40.6000 -74.2167 207° Southwest 223 257 2,500 1,513 Climbing New York TRACON
Wed 03:38:32 PM 40.6500 -74.2667 323° Northwest 283 326 4,800 2,300 Climbing New York TRACON
Wed 03:39:32 PM 40.7167 -74.2000 37° Northeast 309 356 7,100 2,269 Climbing New York TRACON
Wed 03:40:00 PM 41.0374 -73.7747 40° Northeast  Level FlightAware Approximate
Wed 03:40:31 PM 40.7333 -74.1000 78° East 309 356 9,300  Level New York TRACON
Wed 03:41:00 PM 41.1100 -73.6930 40° Northeast  Level FlightAware Approximate
Wed 03:42:00 PM 41.1891 -73.6247 48° Northeast  Level FlightAware Approximate
Wed 03:42:52 PM 40.8161 -73.8361 67° East 353 406 10,200  Level Boston Center
Wed 03:43:52 PM 40.9086 -73.7692 29° Northeast 343 395 12,000 1,750 Climbing Boston Center
Wed 03:44:52 PM 40.9822 -73.7131 30° Northeast 354 407 13,700 1,900 Climbing Boston Center
Wed 03:45:52 PM 41.0981 -73.6189 31° Northeast 369 425 15,800 1,750 Climbing Boston Center
Wed 03:46:52 PM 41.1800 -73.5542 31° Northeast 381 438 17,200 1,550 Climbing Boston Center
Wed 03:47:52 PM 41.2806 -73.4758 30° Northeast 387 445 18,900 1,500 Climbing Boston Center
Wed 03:48:52 PM 41.3689 -73.4108 29° Northeast 387 445 20,200 1,400 Climbing Boston Center
Wed 03:49:52 PM 41.4753 -73.3958 North 379 436 21,700 1,400 Climbing Boston Center
Wed 03:50:52 PM 41.5919 -73.3867 North 374 430 23,000 650 Climbing Boston Center
Wed 03:51:52 PM 41.7089 -73.3717 North 388 447 23,000  Level Boston Center
Wed 03:52:52 PM 41.8361 -73.3594 North 415 478 23,000  Level Boston Center
Wed 03:53:52 PM 41.9611 -73.3419 North 445 512 23,000  Level Boston Center
Wed 03:54:52 PM 42.0883 -73.3297 North 450 518 23,000  Level Boston Center
Wed 03:55:52 PM 42.2094 -73.3175 North 450 518 23,000  Level Boston Center
Wed 03:56:52 PM 42.3094 -73.3047 North 450 518 23,000 -150 Level Boston Center
Wed 03:57:52 PM 42.4472 -73.2786 North 450 518 22,700 -650 Descending Boston Center
Wed 03:58:52 PM 42.5622 -73.2264 18° North 434 499 21,700 -1,050 Descending Boston Center
Wed 03:59:52 PM 42.6278 -73.0694 60° Northeast 402 463 20,600 -1,000 Descending Boston Center
Wed 04:00:52 PM 42.6578 -72.9256 74° East 402 463 19,700 -727 Descending Boston Center
Wed 04:02:04 PM 42.6939 -72.7761 72° East 409 471 19,000 -875 Descending Boston Center
Wed 04:03:16 PM 42.7317 -72.5928 74° East 409 471 17,600 -2,000 Descending Boston Center
Wed 04:04:16 PM 42.7672 -72.4175 74° East 409 471 14,600 -2,550 Descending Boston Center
Wed 04:05:16 PM 42.7942 -72.2758 75° East 396 456 12,500 -1,900 Descending Boston Center
Wed 04:06:16 PM 42.8064 -72.1289 83° East 360 414 10,800 -1,650 Descending Boston Center
Wed 04:07:16 PM 42.8144 -72.0269 84° East 323 372 9,200 -1,250 Descending Boston Center
Wed 04:08:16 PM 42.8411 -71.9133 72° East 295 339 8,300 -1,250 Descending Boston Center
Wed 04:09:16 PM 42.8906 -71.8394 48° Northeast 279 321 6,700 -1,600 Descending Boston Center
Wed 04:10:16 PM 42.9506 -71.7564 45° Northeast 274 315 5,100 -1,500 Descending Boston Center
Wed 04:11:16 PM 42.9961 -71.6936 45° Northeast 262 302 3,700 -1,200 Descending Boston Center
Wed 04:12:16 PM 43.0331 -71.6136 58° Northeast 237 273 2,700 -1,000 Descending Boston Center

Login

Don't have an account? Register now (free) for customized features, flight alerts, and more!